WIIIWIHH

Guest
Details From WIII - Jakarta Sukarno-Hatta Intl
To WIHH - Jakarta Halim Perdanakusuma Intl
Flight Number -
Tags generated
Created
Modified
Stats Distance 17 nm / 31 km
Max Altitude 0 ft / 0 m
Waypoints 3
Social Downloads 9
Likes 0
Share VATSIM

Download

Looking for another format? Having issues loading an existing format? Contact us
Advertisement - Login to hide

Notes

Basic altitude profile: - Ascent Rate: 2500ft/min - Ascent Speed: 250kts - Cruise Altitude: 35000ft - Cruise Speed: 420kts - Descent Rate: 1500ft/min - Descent Speed: 250kts Options: - Use NATs: yes - Use PACOTS: yes - Use low airways: yes - Use high airways: yes

Route

WIII HLM WIHH

ID Type Via Altitude Latitude Longitude Leg Dist Tot Dist Heading (true) Name
O WIII APT - 0 ft / 0 m -6.12574˚ 106.65640˚ - 0 nm - Jakarta Sukarno-Hatta Intl
HLM VOR - 0 ft / 0 m -6.27194˚ 106.88698˚ 16 nm 16 nm 123° / 123° HALIM PERDANAKUSUMA VOR-DME
O WIHH APT - 0 ft / 0 m -6.26661˚ 106.89112˚ 0 nm 16 nm 38° / 38° Jakarta Halim Perdanakusuma Intl

Altitude Profile

Advertisement - Login to hide

WIII

Details ICAO WIII (CGK)
Name Jakarta Sukarno-Hatta Intl
Region Indonesia
Timezone Asia/Jakarta (UTC+7.0)
Stats Elevation 34 ft / 10 m (AMSL)
Location -6.125743° 106.656405°
Runways 2
Magnetic Variation 0.630° E

METAR

WIII 110430Z 26011KT 9999 FEW022 31/24 Q1010 NOSIG

Decode

TAF

TAF WIII 101700Z 1018/1200 22005KT 6000 FEW020 BECMG 1102/1104 25010KT

Decode

Departure Runways

ID Width Length Bearing (true) Bearing (mag) Surface Threshold Offset Overrun Length
07L 197 ft / 60 m 11,823 ft / 3,604 m 68.13° 67.50° Concrete 0 ft / 0 m 200 ft / 61 m
07R 197 ft / 60 m 12,024 ft / 3,665 m 68.12° 67.49° Concrete 0 ft / 0 m 200 ft / 61 m
25L 197 ft / 60 m 12,024 ft / 3,665 m 248.12° 247.49° Concrete 0 ft / 0 m 200 ft / 61 m
25R 197 ft / 60 m 11,823 ft / 3,604 m 248.12° 247.49° Concrete 0 ft / 0 m 200 ft / 61 m

WIHH

Details ICAO WIHH (HLP)
Name Jakarta Halim Perdanakusuma Intl
Region Indonesia
Timezone Asia/Jakarta (UTC+7.0)
Stats Elevation 84 ft / 26 m (AMSL)
Location -6.266608° 106.891117°
Runways 1
Magnetic Variation 0.650° E

METAR

WIHH 110400Z 23010KT 9000 SCT012 32/23 Q1010 NOSIG

Decode

TAF

TAF WIHH 101700Z 1018/1118 22005KT 6000 FEW023 BECMG 1102/1104 27008KT 8000 SCT022 TEMPO 1107/1110 4000 -RA FEW017CB SCT018

Decode

Destination Runways

ID Width Length Bearing (true) Bearing (mag) Surface Threshold Offset Overrun Length
06 148 ft / 45 m 9,855 ft / 3,004 m 65.38° 64.73° Asphalt 0 ft / 0 m 0 ft / 0 m
24 148 ft / 45 m 9,855 ft / 3,004 m 245.38° 244.73° Asphalt 650 ft / 198 m 0 ft / 0 m

Approach Navaids

Runway Type Ident Frequency Range Bearing (true) Bearing (mag) Slope Elevation
24 Localiser IHAL 111.70 MHz 18 nm / 33 km 245.32° 244.67° - 87 ft / 27 m (AMSL)
24 Glidescope IHAL 111.70 MHz 10 nm / 19 km 245.38° 244.73° 3.00° 90 ft / 27 m (AMSL)
24 DME IHAL 111.70 MHz 18 nm / 33 km - - - 88 ft / 27 m (AMSL)

Popular Alternatives